createdAt,value
2022-11-05T00:00:07.503Z,0
2022-11-05T00:00:37.212Z,0
2022-11-05T00:01:21.325Z,0
2022-11-05T00:01:53.109Z,0
2022-11-05T00:02:25.059Z,0
2022-11-05T00:02:57.098Z,0
2022-11-05T00:03:29.280Z,0
2022-11-05T00:04:01.170Z,0
2022-11-05T00:04:33.033Z,0
2022-11-05T00:05:05.381Z,0
2022-11-05T00:05:37.170Z,0
2022-11-05T00:06:08.898Z,0
2022-11-05T00:06:41.031Z,0
2022-11-05T00:07:12.780Z,0
2022-11-05T00:07:44.967Z,0
2022-11-05T00:08:16.818Z,0
2022-11-05T00:08:48.894Z,0
2022-11-05T00:09:05.002Z,0
2022-11-05T00:09:48.842Z,0
2022-11-05T00:10:21.123Z,0
2022-11-05T00:10:52.685Z,0
2022-11-05T00:11:24.683Z,0
2022-11-05T00:11:56.747Z,0
2022-11-05T00:12:28.788Z,0
2022-11-05T00:13:00.614Z,0
2022-11-05T00:13:32.757Z,0
2022-11-05T00:14:04.762Z,0
2022-11-05T00:14:36.768Z,0
2022-11-05T00:15:09.384Z,0
2022-11-05T00:15:40.480Z,0
2022-11-05T00:16:12.537Z,0
2022-11-05T00:16:44.547Z,0
2022-11-05T00:17:16.658Z,0
2022-11-05T00:17:48.518Z,0
2022-11-05T00:18:20.606Z,0
2022-11-05T00:18:52.643Z,0
2022-11-05T00:19:24.402Z,0
2022-11-05T00:19:56.464Z,0
2022-11-05T00:20:28.567Z,0
2022-11-05T00:21:00.347Z,0
2022-11-05T00:21:32.267Z,0
2022-11-05T00:21:48.456Z,0
2022-11-05T00:22:32.210Z,0
2022-11-05T00:23:04.451Z,0
2022-11-05T00:23:36.324Z,0
2022-11-05T00:24:08.109Z,0
2022-11-05T00:24:40.115Z,0
2022-11-05T00:25:12.473Z,0
2022-11-05T00:25:44.176Z,0
2022-11-05T00:26:15.997Z,0
2022-11-05T00:26:48.040Z,0
2022-11-05T00:27:20.143Z,0
2022-11-05T00:27:52.063Z,0
2022-11-05T00:28:24.008Z,0
2022-11-05T00:28:56.132Z,0
2022-11-05T00:29:28.008Z,0
2022-11-05T00:29:59.931Z,0
2022-11-05T00:30:32.336Z,0
2022-11-05T00:30:48.040Z,0
2022-11-05T00:31:19.776Z,0
2022-11-05T00:31:35.944Z,0
2022-11-05T00:32:08.115Z,0
2022-11-05T00:32:39.799Z,0
2022-11-05T00:33:12.105Z,0
2022-11-05T00:33:43.705Z,0
2022-11-05T00:34:15.710Z,0
2022-11-05T00:34:47.826Z,0
2022-11-05T00:35:04.388Z,0
2022-11-05T00:35:35.784Z,0
2022-11-05T00:36:19.682Z,0
2022-11-05T00:36:51.809Z,0
2022-11-05T00:37:23.539Z,0
2022-11-05T00:37:55.672Z,0
2022-11-05T00:38:27.788Z,0
2022-11-05T00:38:59.607Z,0
2022-11-05T00:39:31.508Z,0
2022-11-05T00:40:04.588Z,0
2022-11-05T00:40:35.506Z,0
2022-11-05T00:41:07.760Z,0
2022-11-05T00:41:39.458Z,0
2022-11-05T00:42:11.500Z,0
2022-11-05T00:42:43.389Z,0
2022-11-05T00:43:15.525Z,0
2022-11-05T00:43:47.459Z,0
2022-11-05T00:44:04.231Z,0
2022-11-05T00:44:47.361Z,0
2022-11-05T00:45:19.973Z,0
2022-11-05T00:45:51.422Z,0
2022-11-05T00:46:23.140Z,0
2022-11-05T00:46:59.710Z,0
2022-11-05T00:47:27.383Z,0
2022-11-05T00:47:59.219Z,0
2022-11-05T00:48:31.066Z,0
2022-11-05T00:48:47.362Z,0
2022-11-05T00:49:19.019Z,0
2022-11-05T00:49:35.010Z,0
2022-11-05T00:50:07.475Z,0
2022-11-05T00:50:39.075Z,0
2022-11-05T00:51:11.255Z,0
2022-11-05T00:51:43.035Z,0
2022-11-05T00:52:15.114Z,0
2022-11-05T00:52:46.978Z,0
2022-11-05T00:53:03.780Z,0
2022-11-05T00:53:34.987Z,0
2022-11-05T00:54:18.951Z,0
2022-11-05T00:54:51.032Z,0
2022-11-05T00:55:23.081Z,0
2022-11-05T00:55:54.871Z,0
2022-11-05T00:56:27.302Z,0
2022-11-05T00:57:04.366Z,0
2022-11-05T00:57:30.755Z,0
2022-11-05T00:57:47.041Z,0
2022-11-05T00:58:30.823Z,0
2022-11-05T00:59:03.411Z,0
2022-11-05T00:59:34.711Z,0
2022-11-05T01:00:07.750Z,0
2022-11-05T01:00:38.603Z,0
2022-11-05T01:01:10.838Z,0
2022-11-05T01:01:42.955Z,0
2022-11-05T01:02:14.761Z,0
2022-11-05T01:02:46.777Z,0
2022-11-05T01:03:03.426Z,0
2022-11-05T01:03:51.503Z,0
2022-11-05T01:04:18.641Z,0
2022-11-05T01:04:50.397Z,0
2022-11-05T01:05:22.676Z,0
2022-11-05T01:05:54.499Z,0
2022-11-05T01:06:26.799Z,0
2022-11-05T01:06:58.348Z,0
2022-11-05T01:07:30.360Z,0
2022-11-05T01:08:03.436Z,0
2022-11-05T01:08:34.409Z,0
2022-11-05T01:09:06.359Z,0
2022-11-05T01:09:38.345Z,0
2022-11-05T01:10:10.590Z,0
2022-11-05T01:10:42.460Z,0
2022-11-05T01:11:14.158Z,0
2022-11-05T01:11:46.339Z,0
2022-11-05T01:12:03.319Z,0
2022-11-05T01:12:34.077Z,0
2022-11-05T01:13:18.698Z,0
2022-11-05T01:13:50.024Z,0
2022-11-05T01:14:22.132Z,0
2022-11-05T01:14:54.079Z,0
2022-11-05T01:15:26.531Z,0
2022-11-05T01:15:58.115Z,0
2022-11-05T01:16:29.992Z,0
2022-11-05T01:16:46.138Z,0
2022-11-05T01:17:30.011Z,0
2022-11-05T01:18:02.911Z,0
2022-11-05T01:18:33.836Z,0
2022-11-05T01:19:05.869Z,0
2022-11-05T01:19:37.891Z,0
2022-11-05T01:20:10.193Z,0
2022-11-05T01:20:41.796Z,0
2022-11-05T01:21:13.720Z,0
2022-11-05T01:21:45.832Z,0
2022-11-05T01:22:18.022Z,0
2022-11-05T01:22:49.581Z,0
2022-11-05T01:23:22.155Z,0
2022-11-05T01:23:53.730Z,0
2022-11-05T01:24:25.849Z,0
2022-11-05T01:24:57.789Z,0
2022-11-05T01:25:29.869Z,0
2022-11-05T01:25:45.837Z,0
2022-11-05T01:26:17.754Z,0
2022-11-05T01:26:33.686Z,0
2022-11-05T01:27:05.710Z,0
2022-11-05T01:27:37.727Z,0
2022-11-05T01:28:09.594Z,0
2022-11-05T01:28:41.547Z,0
2022-11-05T01:29:13.614Z,0
2022-11-05T01:29:45.445Z,0
2022-11-05T01:30:18.526Z,0
2022-11-05T01:30:49.428Z,0
2022-11-05T01:31:21.291Z,0
2022-11-05T01:31:53.395Z,0
2022-11-05T01:32:25.432Z,0
2022-11-05T01:32:57.463Z,0
2022-11-05T01:33:29.207Z,0
2022-11-05T01:33:45.438Z,0
2022-11-05T01:34:29.231Z,0
2022-11-05T01:35:01.759Z,0
2022-11-05T01:35:33.292Z,0
2022-11-05T01:36:05.174Z,0
2022-11-05T01:36:37.124Z,0
2022-11-05T01:37:09.140Z,0
2022-11-05T01:37:41.346Z,0
2022-11-05T01:38:12.967Z,0
2022-11-05T01:38:45.094Z,0
2022-11-05T01:39:17.101Z,0
2022-11-05T01:39:49.274Z,0
2022-11-05T01:40:21.274Z,0
2022-11-05T01:40:52.939Z,0
2022-11-05T01:41:25.097Z,0
2022-11-05T01:41:57.155Z,0
2022-11-05T01:42:28.854Z,0
2022-11-05T01:42:44.969Z,0
2022-11-05T01:43:16.872Z,0
2022-11-05T01:43:33.050Z,0
2022-11-05T01:44:04.949Z,0
2022-11-05T01:44:36.867Z,0
2022-11-05T01:45:09.679Z,0
2022-11-05T01:45:40.809Z,0
2022-11-05T01:46:12.635Z,0
2022-11-05T01:46:44.668Z,0
2022-11-05T01:47:00.987Z,0
2022-11-05T01:47:32.775Z,0
2022-11-05T01:48:16.819Z,0
2022-11-05T01:48:48.638Z,0
2022-11-05T01:49:20.546Z,0
2022-11-05T01:49:52.674Z,0
2022-11-05T01:50:25.082Z,0
2022-11-05T01:50:56.624Z,0
2022-11-05T01:51:28.516Z,0
2022-11-05T01:51:44.728Z,0
2022-11-05T01:52:28.565Z,0
2022-11-05T01:53:00.493Z,0
2022-11-05T01:53:32.349Z,0
2022-11-05T01:54:04.721Z,0
2022-11-05T01:54:36.581Z,0
2022-11-05T01:55:08.660Z,0
2022-11-05T01:55:40.292Z,0
2022-11-05T01:56:12.443Z,0
2022-11-05T01:56:44.402Z,0
2022-11-05T01:57:16.688Z,0
2022-11-05T01:57:48.304Z,0
2022-11-05T01:58:20.134Z,0
2022-11-05T01:58:52.441Z,0
2022-11-05T01:59:24.272Z,0
2022-11-05T01:59:56.194Z,0
2022-11-05T02:00:28.539Z,0
2022-11-05T02:01:00.122Z,0
2022-11-05T02:01:32.388Z,0
2022-11-05T02:02:04.710Z,0
2022-11-05T02:02:36.191Z,0
2022-11-05T02:03:08.539Z,0
2022-11-05T02:03:40.394Z,0
2022-11-05T02:04:12.027Z,0
2022-11-05T02:04:43.963Z,0
2022-11-05T02:05:00.133Z,0
2022-11-05T02:05:32.185Z,0
2022-11-05T02:06:15.996Z,0
2022-11-05T02:06:47.766Z,0
2022-11-05T02:07:19.741Z,0
2022-11-05T02:07:51.923Z,0
2022-11-05T02:08:23.803Z,0
2022-11-05T02:08:55.702Z,0
2022-11-05T02:09:27.910Z,0
2022-11-05T02:09:43.921Z,0
2022-11-05T02:10:28.283Z,0
2022-11-05T02:10:59.662Z,0
2022-11-05T02:11:31.733Z,0
2022-11-05T02:12:04.383Z,0
2022-11-05T02:12:35.702Z,0
2022-11-05T02:13:08.320Z,0
2022-11-05T02:13:39.510Z,0
2022-11-05T02:14:11.727Z,0
2022-11-05T02:14:43.590Z,0
2022-11-05T02:15:17.297Z,0
2022-11-05T02:15:47.778Z,0
2022-11-05T02:16:19.491Z,0
2022-11-05T02:16:51.618Z,0
2022-11-05T02:17:23.518Z,0
2022-11-05T02:17:55.500Z,0
2022-11-05T02:18:27.518Z,0
2022-11-05T02:18:43.551Z,0
2022-11-05T02:19:15.390Z,0
2022-11-05T02:19:31.500Z,0
2022-11-05T02:20:04.488Z,0
2022-11-05T02:20:35.222Z,0
2022-11-05T02:21:07.513Z,0
2022-11-05T02:21:39.405Z,0
2022-11-05T02:22:11.268Z,0
2022-11-05T02:22:43.213Z,0
2022-11-05T02:22:59.271Z,0
2022-11-05T02:23:31.326Z,0
2022-11-05T02:24:15.253Z,0
2022-11-05T02:24:47.142Z,0
2022-11-05T02:25:19.443Z,0
2022-11-05T02:25:51.095Z,0
2022-11-05T02:26:23.099Z,0
2022-11-05T02:26:55.035Z,0
2022-11-05T02:27:27.180Z,0
2022-11-05T02:27:43.188Z,0
2022-11-05T02:28:27.304Z,0
2022-11-05T02:28:59.137Z,0
2022-11-05T02:29:30.894Z,0
2022-11-05T02:30:05.889Z,0
2022-11-05T02:30:34.991Z,0
2022-11-05T02:31:07.207Z,0
2022-11-05T02:31:38.947Z,0
2022-11-05T02:32:11.110Z,0
2022-11-05T02:32:43.004Z,0
2022-11-05T02:33:14.869Z,0
2022-11-05T02:33:47.005Z,0
2022-11-05T02:34:18.780Z,0
2022-11-05T02:34:50.803Z,0
2022-11-05T02:35:28.048Z,0
2022-11-05T02:35:54.608Z,0
2022-11-05T02:36:26.670Z,0
2022-11-05T02:36:42.890Z,0
2022-11-05T02:37:14.600Z,0
2022-11-05T02:37:30.708Z,0
2022-11-05T02:38:03.172Z,0
2022-11-05T02:38:34.577Z,0
2022-11-05T02:39:07.905Z,0
2022-11-05T02:39:40.071Z,0
2022-11-05T02:40:10.858Z,0
2022-11-05T02:40:42.621Z,0
2022-11-05T02:40:59.016Z,0
2022-11-05T02:41:30.501Z,0
2022-11-05T02:42:14.554Z,0
2022-11-05T02:42:46.313Z,0
2022-11-05T02:43:18.429Z,0
2022-11-05T02:43:50.328Z,0
2022-11-05T02:44:22.493Z,0
2022-11-05T02:44:54.283Z,0
2022-11-05T02:45:26.743Z,0
2022-11-05T02:45:42.585Z,0
2022-11-05T02:46:26.312Z,0
2022-11-05T02:46:58.466Z,0
2022-11-05T02:47:30.225Z,0
2022-11-05T02:48:02.805Z,0
2022-11-05T02:48:34.177Z,0
2022-11-05T02:49:06.264Z,0
2022-11-05T02:49:38.205Z,0
2022-11-05T02:50:10.341Z,0
2022-11-05T02:50:42.254Z,0
2022-11-05T02:51:14.169Z,0
2022-11-05T02:51:45.934Z,0
2022-11-05T02:52:18.199Z,0
2022-11-05T02:52:49.928Z,0
2022-11-05T02:53:22.217Z,0
2022-11-05T02:53:53.908Z,0
2022-11-05T02:54:26.034Z,0
2022-11-05T02:54:42.222Z,0
2022-11-05T02:55:14.025Z,0
2022-11-05T02:55:29.829Z,0
2022-11-05T02:56:02.229Z,0
2022-11-05T02:56:33.823Z,0
2022-11-05T02:57:05.759Z,0
2022-11-05T02:57:38.022Z,0
2022-11-05T02:58:09.731Z,0
2022-11-05T02:58:41.896Z,0
2022-11-05T02:58:57.932Z,0
2022-11-05T02:59:29.598Z,0
2022-11-05T03:00:14.672Z,0
2022-11-05T03:00:45.556Z,0
2022-11-05T03:01:17.875Z,0
2022-11-05T03:01:49.635Z,0
2022-11-05T03:02:21.968Z,0
2022-11-05T03:02:53.521Z,0
2022-11-05T03:03:10.068Z,0
2022-11-05T03:03:41.747Z,0
2022-11-05T03:04:25.538Z,0
2022-11-05T03:04:57.833Z,0
2022-11-05T03:05:29.631Z,0
2022-11-05T03:06:01.536Z,0
2022-11-05T03:06:33.524Z,0
2022-11-05T03:07:05.433Z,0
2022-11-05T03:07:37.342Z,0
2022-11-05T03:08:09.353Z,0
2022-11-05T03:08:41.495Z,0
2022-11-05T03:09:13.294Z,0
2022-11-05T03:09:45.172Z,0
2022-11-05T03:10:17.615Z,0
2022-11-05T03:10:49.253Z,0
2022-11-05T03:11:21.297Z,0
2022-11-05T03:11:53.232Z,0
2022-11-05T03:12:25.049Z,0
2022-11-05T03:12:57.340Z,0
2022-11-05T03:13:29.253Z,0
2022-11-05T03:14:01.076Z,0
2022-11-05T03:14:33.066Z,0
2022-11-05T03:15:06.938Z,0
2022-11-05T03:15:37.264Z,0
2022-11-05T03:16:09.105Z,0
2022-11-05T03:16:41.303Z,0
2022-11-05T03:16:57.228Z,0
2022-11-05T03:17:28.902Z,0
2022-11-05T03:18:13.092Z,0
2022-11-05T03:18:44.821Z,0
2022-11-05T03:19:16.772Z,0
2022-11-05T03:19:49.110Z,0
2022-11-05T03:20:21.188Z,0
2022-11-05T03:20:52.936Z,0
2022-11-05T03:21:24.882Z,0
2022-11-05T03:21:41.065Z,0
2022-11-05T03:22:24.827Z,0
2022-11-05T03:22:56.859Z,0
2022-11-05T03:23:28.661Z,0
2022-11-05T03:24:00.866Z,0
2022-11-05T03:24:32.793Z,1.1
2022-11-05T03:25:05.230Z,1.1
2022-11-05T03:25:36.566Z,1.1
2022-11-05T03:26:08.705Z,1.1
2022-11-05T03:26:40.726Z,1.1
2022-11-05T03:27:12.871Z,2.9
2022-11-05T03:27:44.473Z,2.9
2022-11-05T03:28:16.539Z,2.9
2022-11-05T03:28:48.765Z,2.9
2022-11-05T03:29:25.548Z,2.9
2022-11-05T03:29:52.436Z,2.9
2022-11-05T03:30:24.721Z,2.9
2022-11-05T03:30:40.724Z,2.9
2022-11-05T03:31:12.473Z,4.1
2022-11-05T03:31:28.606Z,4.1
2022-11-05T03:32:00.266Z,4.1
2022-11-05T03:32:32.475Z,4.1
2022-11-05T03:33:04.742Z,4.1
2022-11-05T03:33:36.318Z,4.1
2022-11-05T03:34:08.412Z,2.9
2022-11-05T03:34:40.295Z,2.9
2022-11-05T03:34:56.482Z,2.9
2022-11-05T03:35:28.533Z,2.9
2022-11-05T03:36:12.658Z,2.9
2022-11-05T03:36:44.190Z,2.9
2022-11-05T03:37:16.167Z,2.9
2022-11-05T03:37:48.515Z,2.9
2022-11-05T03:38:20.167Z,2.9
2022-11-05T03:38:52.224Z,2.9
2022-11-05T03:39:24.144Z,2.9
2022-11-05T03:39:40.302Z,2.9
2022-11-05T03:40:24.192Z,2.9
2022-11-05T03:40:56.278Z,2.9
2022-11-05T03:41:27.993Z,1.8
2022-11-05T03:41:59.872Z,1.8
2022-11-05T03:42:31.901Z,1.8
2022-11-05T03:43:04.548Z,2.9
2022-11-05T03:43:35.794Z,2.9
2022-11-05T03:44:08.005Z,2.9
2022-11-05T03:44:39.999Z,2.9
2022-11-05T03:45:12.849Z,2.9
2022-11-05T03:45:43.828Z,2.9
2022-11-05T03:46:15.785Z,2.9
2022-11-05T03:46:47.946Z,2.9
2022-11-05T03:47:19.805Z,1.1
2022-11-05T03:47:51.646Z,1.1
2022-11-05T03:48:23.673Z,1.1
2022-11-05T03:48:40.025Z,1.1
2022-11-05T03:49:11.685Z,1.1
2022-11-05T03:49:27.854Z,1.1
2022-11-05T03:49:59.500Z,1.1
2022-11-05T03:50:34.784Z,1.1
2022-11-05T03:51:04.098Z,1.1
2022-11-05T03:51:35.652Z,2.9
2022-11-05T03:52:07.882Z,1.8
2022-11-05T03:52:39.491Z,1.8
2022-11-05T03:52:55.789Z,1.8
2022-11-05T03:53:27.815Z,1.8
2022-11-05T03:54:11.709Z,1.8
2022-11-05T03:54:43.491Z,1.8
2022-11-05T03:55:15.704Z,1.8
2022-11-05T03:55:47.682Z,1.8
2022-11-05T03:56:19.397Z,1.8
2022-11-05T03:56:51.406Z,1.8
2022-11-05T03:57:23.395Z,1.8
2022-11-05T03:57:55.447Z,1.8
2022-11-05T03:58:27.459Z,1.8
2022-11-05T03:58:59.525Z,1.8
2022-11-05T03:59:31.233Z,1.8
2022-11-05T04:00:06.003Z,1.8
2022-11-05T04:00:35.272Z,1.8
2022-11-05T04:01:07.448Z,0
2022-11-05T04:01:39.273Z,0
2022-11-05T04:01:55.497Z,0
2022-11-05T04:02:39.320Z,0
2022-11-05T04:03:11.686Z,0
2022-11-05T04:03:43.332Z,1.1
2022-11-05T04:04:14.983Z,1.1
2022-11-05T04:04:46.947Z,1.1
2022-11-05T04:05:28.990Z,1.1
2022-11-05T04:05:51.059Z,1.1
2022-11-05T04:06:22.826Z,1.1
2022-11-05T04:06:39.203Z,1.1
2022-11-05T04:07:11.174Z,2.9
2022-11-05T04:07:55.063Z,2.9
2022-11-05T04:08:26.934Z,2.9
2022-11-05T04:08:58.915Z,2.9
2022-11-05T04:09:30.876Z,2.9
2022-11-05T04:10:04.397Z,2.9
2022-11-05T04:10:34.911Z,2.9
2022-11-05T04:11:06.679Z,2.9
2022-11-05T04:11:38.996Z,2.9
2022-11-05T04:12:10.750Z,2.9
2022-11-05T04:12:42.830Z,2.9
2022-11-05T04:13:14.637Z,1.8
2022-11-05T04:13:46.665Z,1.8
2022-11-05T04:14:19.393Z,3.6
2022-11-05T04:14:50.686Z,3.6
2022-11-05T04:15:26.029Z,3.6
2022-11-05T04:15:39.089Z,3.6
2022-11-05T04:16:22.597Z,3.6
2022-11-05T04:16:54.531Z,3.6
2022-11-05T04:17:26.822Z,1.8
2022-11-05T04:17:58.482Z,1.8
2022-11-05T04:18:33.230Z,1.8
2022-11-05T04:19:03.164Z,1.8
2022-11-05T04:19:34.550Z,1.8
2022-11-05T04:20:06.588Z,1.8
2022-11-05T04:20:38.699Z,2.9
2022-11-05T04:20:59.702Z,2.9
2022-11-05T04:21:38.599Z,2.9
2022-11-05T04:22:10.385Z,2.9
2022-11-05T04:22:42.382Z,2.9
2022-11-05T04:23:14.252Z,1.1
2022-11-05T04:23:46.312Z,1.1
2022-11-05T04:24:18.363Z,1.1
2022-11-05T04:24:50.029Z,2.9
2022-11-05T04:25:22.445Z,2.9
2022-11-05T04:25:38.533Z,2.9
2022-11-05T04:26:10.221Z,2.9
2022-11-05T04:26:26.295Z,2.9
2022-11-05T04:26:58.320Z,2.9
2022-11-05T04:27:30.011Z,2.9
2022-11-05T04:28:02.818Z,4.1
2022-11-05T04:28:34.190Z,4.1
2022-11-05T04:29:07.986Z,4.1
2022-11-05T04:29:38.342Z,4.1
2022-11-05T04:30:11.258Z,2.9
2022-11-05T04:30:42.171Z,2.9
2022-11-05T04:31:13.950Z,2.9
2022-11-05T04:31:45.859Z,2.9
2022-11-05T04:32:18.203Z,2.9
2022-11-05T04:32:49.873Z,2.9
2022-11-05T04:33:21.809Z,2.9
2022-11-05T04:33:38.117Z,2.9
2022-11-05T04:34:21.826Z,1.1
2022-11-05T04:34:53.870Z,1.1
2022-11-05T04:35:26.149Z,1.1
2022-11-05T04:35:57.796Z,1.1
2022-11-05T04:36:29.746Z,1.1
2022-11-05T04:37:02.121Z,1.1
2022-11-05T04:37:33.725Z,0
2022-11-05T04:38:05.786Z,1.8
2022-11-05T04:38:37.964Z,1.8
2022-11-05T04:39:09.753Z,1.8
2022-11-05T04:39:41.852Z,1.8
2022-11-05T04:40:13.859Z,1.8
2022-11-05T04:40:45.653Z,1.8
2022-11-05T04:41:17.808Z,1.8
2022-11-05T04:41:49.655Z,2.9
2022-11-05T04:42:21.294Z,2.9
2022-11-05T04:42:53.441Z,2.9
2022-11-05T04:43:14.868Z,2.9
2022-11-05T04:43:53.413Z,2.9
2022-11-05T04:44:25.569Z,2.9
2022-11-05T04:44:57.403Z,2.9
2022-11-05T04:45:29.679Z,4.8
2022-11-05T04:46:01.620Z,4.8
2022-11-05T04:46:33.374Z,4.8
2022-11-05T04:47:05.266Z,4.8
2022-11-05T04:47:37.332Z,4.8
2022-11-05T04:47:53.350Z,4.8
2022-11-05T04:48:30.287Z,4.1
2022-11-05T04:49:09.282Z,4.1
2022-11-05T04:49:41.329Z,4.1
2022-11-05T04:50:13.360Z,4.1
2022-11-05T04:50:45.158Z,4.1
2022-11-05T04:51:17.218Z,4.8
2022-11-05T04:51:49.182Z,4.8
2022-11-05T04:52:21.034Z,4.8
2022-11-05T04:52:37.371Z,4.8
2022-11-05T04:53:21.076Z,4.8
2022-11-05T04:53:53.057Z,4.8
2022-11-05T04:54:24.952Z,2.9
2022-11-05T04:54:57.195Z,2.9
2022-11-05T04:55:29.195Z,2.9
2022-11-05T04:56:00.961Z,2.9
2022-11-05T04:56:32.712Z,4.1
2022-11-05T04:57:05.164Z,2.9
2022-11-05T04:57:36.952Z,2.9
2022-11-05T04:58:09.154Z,2.9
2022-11-05T04:58:40.873Z,2.9
2022-11-05T04:59:12.727Z,2.9
2022-11-05T04:59:44.737Z,2.9
2022-11-05T05:00:18.313Z,4.8
2022-11-05T05:00:48.821Z,4.8
2022-11-05T05:01:20.865Z,2.9
2022-11-05T05:01:36.950Z,2.9
2022-11-05T05:02:08.925Z,2.9
2022-11-05T05:02:24.759Z,2.9
2022-11-05T05:02:56.635Z,4.1
2022-11-05T05:03:28.820Z,4.1
2022-11-05T05:04:00.702Z,4.1
2022-11-05T05:04:32.654Z,4.1
2022-11-05T05:05:05.110Z,4.1
2022-11-05T05:05:36.497Z,5.9
2022-11-05T05:05:53.948Z,5.9
2022-11-05T05:06:24.469Z,4.8
2022-11-05T05:07:08.672Z,4.8
2022-11-05T05:07:40.514Z,4.8
2022-11-05T05:08:12.471Z,6.6
2022-11-05T05:08:44.425Z,6.6
2022-11-05T05:09:16.527Z,4.8
2022-11-05T05:09:48.458Z,4.8
2022-11-05T05:10:25.535Z,5.9
2022-11-05T05:10:36.534Z,5.9
2022-11-05T05:11:20.315Z,5.9
2022-11-05T05:11:52.420Z,5.9
2022-11-05T05:12:24.187Z,4.8
2022-11-05T05:12:56.191Z,6.6
2022-11-05T05:13:28.382Z,6.6
2022-11-05T05:14:00.214Z,6.6
2022-11-05T05:14:32.074Z,6.6
2022-11-05T05:15:06.291Z,4.8
2022-11-05T05:15:36.199Z,4.8
2022-11-05T05:16:08.392Z,4.8
2022-11-05T05:16:39.994Z,4.8
2022-11-05T05:17:12.181Z,2.9
2022-11-05T05:17:44.071Z,4.1
2022-11-05T05:18:16.007Z,4.1
2022-11-05T05:18:48.135Z,4.1
2022-11-05T05:19:19.897Z,4.1
2022-11-05T05:19:36.073Z,4.1
2022-11-05T05:20:08.246Z,2.9
2022-11-05T05:20:24.017Z,2.9
2022-11-05T05:20:56.008Z,4.8
2022-11-05T05:21:27.999Z,4.8
2022-11-05T05:21:59.843Z,4.8
2022-11-05T05:22:31.869Z,2.9
2022-11-05T05:23:04.020Z,4.1
2022-11-05T05:23:35.861Z,4.1
2022-11-05T05:23:51.856Z,4.1
2022-11-05T05:24:23.663Z,4.1
2022-11-05T05:25:08.354Z,4.1
2022-11-05T05:25:39.682Z,4.1
2022-11-05T05:26:11.859Z,5.9
2022-11-05T05:26:43.713Z,5.9
2022-11-05T05:27:15.705Z,4.8
2022-11-05T05:27:47.572Z,4.8
2022-11-05T05:28:19.565Z,4.8
2022-11-05T05:28:51.588Z,4.8
2022-11-05T05:29:28.476Z,4.8
2022-11-05T05:29:55.473Z,4.8
2022-11-05T05:30:28.105Z,2.9
2022-11-05T05:30:59.421Z,2.9
2022-11-05T05:31:31.514Z,2.9
2022-11-05T05:32:04.162Z,2.9
2022-11-05T05:32:35.345Z,2.9
2022-11-05T05:32:51.517Z,2.9
2022-11-05T05:33:35.417Z,2.9
2022-11-05T05:34:07.248Z,2.9
2022-11-05T05:34:23.332Z,2.9
2022-11-05T05:34:55.452Z,2.9
2022-11-05T05:35:39.709Z,2.9
2022-11-05T05:36:11.754Z,1.1
2022-11-05T05:36:43.152Z,1.1
2022-11-05T05:37:15.141Z,1.1
2022-11-05T05:37:47.303Z,1.1
2022-11-05T05:38:19.280Z,1.1
2022-11-05T05:38:51.079Z,1.1
2022-11-05T05:39:07.392Z,1.1
2022-11-05T05:39:50.992Z,1.1
2022-11-05T05:40:07.569Z,1.1
2022-11-05T05:40:50.987Z,1.1
2022-11-05T05:41:22.994Z,0
2022-11-05T05:41:54.835Z,0
2022-11-05T05:42:27.068Z,0
2022-11-05T05:42:59.066Z,0
2022-11-05T05:43:30.891Z,0
2022-11-05T05:44:03.430Z,0
2022-11-05T05:44:34.799Z,0
2022-11-05T05:44:51.014Z,0
2022-11-05T05:45:23.132Z,0
2022-11-05T05:46:06.921Z,0
2022-11-05T05:46:38.612Z,0
2022-11-05T05:47:10.921Z,0
2022-11-05T05:47:42.920Z,1.8
2022-11-05T05:48:14.819Z,1.8
2022-11-05T05:48:46.445Z,1.8
2022-11-05T05:49:18.986Z,1.8
2022-11-05T05:49:50.812Z,1.8
2022-11-05T05:50:22.997Z,1.8
2022-11-05T05:50:54.581Z,1.8
2022-11-05T05:51:26.616Z,1.8
2022-11-05T05:51:58.779Z,1.8
2022-11-05T05:52:30.716Z,1.8
2022-11-05T05:53:03.080Z,1.8
2022-11-05T05:53:34.568Z,1.8
2022-11-05T05:53:50.620Z,1.8
2022-11-05T05:54:38.297Z,1.8
2022-11-05T05:55:06.762Z,1.8
2022-11-05T05:55:38.601Z,1.8
2022-11-05T05:56:10.406Z,1.8
2022-11-05T05:56:42.537Z,1.8
2022-11-05T05:57:14.324Z,0
2022-11-05T05:57:46.141Z,0
2022-11-05T05:58:18.376Z,0
2022-11-05T05:58:34.394Z,0
2022-11-05T05:59:06.292Z,1.1
2022-11-05T05:59:22.327Z,1.1
2022-11-05T05:59:54.173Z,1.1
2022-11-05T06:00:27.054Z,1.1
2022-11-05T06:00:58.386Z,1.1
2022-11-05T06:01:30.305Z,1.1
2022-11-05T06:02:02.711Z,1.1
2022-11-05T06:02:34.276Z,1.1
2022-11-05T06:02:50.339Z,1.1
2022-11-05T06:03:22.170Z,1.1
2022-11-05T06:04:06.063Z,1.1
2022-11-05T06:04:38.226Z,2.9
2022-11-05T06:05:10.230Z,2.9
2022-11-05T06:05:42.220Z,2.9
2022-11-05T06:06:14.046Z,2.9
2022-11-05T06:06:45.897Z,2.9
2022-11-05T06:07:18.165Z,2.9
2022-11-05T06:07:37.273Z,4.1
2022-11-05T06:08:18.015Z,2.9
2022-11-05T06:08:49.829Z,2.9
2022-11-05T06:09:21.827Z,2.9
2022-11-05T06:09:53.828Z,2.9
2022-11-05T06:10:26.024Z,2.9
2022-11-05T06:10:58.062Z,4.8
2022-11-05T06:11:29.698Z,4.8
2022-11-05T06:12:02.143Z,4.8
2022-11-05T06:12:33.864Z,4.8
2022-11-05T06:13:05.880Z,4.8
2022-11-05T06:13:37.697Z,4.8
2022-11-05T06:14:09.628Z,2.9
2022-11-05T06:14:41.741Z,2.9
2022-11-05T06:15:14.645Z,2.9
2022-11-05T06:15:45.468Z,2.9
2022-11-05T06:16:17.657Z,2.9
2022-11-05T06:16:33.686Z,2.9
2022-11-05T06:17:05.918Z,3.6
2022-11-05T06:17:21.602Z,3.6
2022-11-05T06:17:53.425Z,3.6
2022-11-05T06:18:25.446Z,3.6
2022-11-05T06:18:57.480Z,3.6
2022-11-05T06:19:29.468Z,3.6
2022-11-05T06:20:01.776Z,1.8
2022-11-05T06:20:33.450Z,1.8
2022-11-05T06:21:05.714Z,1.8
2022-11-05T06:21:37.461Z,1.8
2022-11-05T06:22:09.291Z,1.8
2022-11-05T06:22:41.449Z,1.8
2022-11-05T06:23:13.716Z,1.8
2022-11-05T06:23:45.265Z,1.8
2022-11-05T06:24:17.061Z,1.8
2022-11-05T06:24:49.259Z,1.8
2022-11-05T06:25:05.921Z,1.8
2022-11-05T06:25:40.987Z,1.8
2022-11-05T06:26:21.235Z,0
2022-11-05T06:26:53.012Z,0
2022-11-05T06:27:25.182Z,0
2022-11-05T06:27:57.029Z,0
2022-11-05T06:28:29.344Z,0
2022-11-05T06:29:01.275Z,0
2022-11-05T06:29:33.017Z,0
2022-11-05T06:30:06.597Z,0
2022-11-05T06:30:37.195Z,0
2022-11-05T06:31:08.883Z,0
2022-11-05T06:31:41.293Z,0
2022-11-05T06:32:12.964Z,0
2022-11-05T06:32:45.142Z,0
2022-11-05T06:33:16.954Z,0
2022-11-05T06:33:33.098Z,0
2022-11-05T06:34:05.209Z,0
2022-11-05T06:34:20.950Z,0
2022-11-05T06:34:52.964Z,0
2022-11-05T06:35:30.523Z,0
2022-11-05T06:35:56.938Z,0
2022-11-05T06:36:29.009Z,0
2022-11-05T06:37:01.072Z,0
2022-11-05T06:37:32.945Z,0
2022-11-05T06:37:49.270Z,0
2022-11-05T06:38:20.957Z,1.1
2022-11-05T06:39:05.102Z,1.1
2022-11-05T06:39:36.901Z,1.1
2022-11-05T06:40:09.229Z,1.1
2022-11-05T06:40:40.923Z,1.1
2022-11-05T06:41:12.841Z,1.1
2022-11-05T06:42:11.845Z,1.1
2022-11-05T06:42:21.742Z,1.1
2022-11-05T06:42:32.800Z,1.1
2022-11-05T06:43:16.455Z,1.1
2022-11-05T06:43:48.988Z,1.1
2022-11-05T06:44:20.644Z,1.1
2022-11-05T06:44:52.522Z,1.1
2022-11-05T06:45:24.869Z,1.1
2022-11-05T06:45:56.655Z,1.1
2022-11-05T06:46:28.793Z,1.1
2022-11-05T06:47:00.411Z,1.1
2022-11-05T06:47:32.420Z,1.1
2022-11-05T06:47:48.881Z,1.1
2022-11-05T06:48:32.418Z,0
2022-11-05T06:49:04.791Z,0
2022-11-05T06:49:36.203Z,0
2022-11-05T06:50:08.690Z,0
2022-11-05T06:50:40.417Z,0
2022-11-05T06:51:12.312Z,0
2022-11-05T06:51:44.070Z,0
2022-11-05T06:52:16.184Z,0
2022-11-05T06:52:35.885Z,0
2022-11-05T06:53:04.538Z,0
2022-11-05T06:53:20.136Z,0
2022-11-05T06:53:51.959Z,0
2022-11-05T06:54:24.178Z,0
2022-11-05T06:54:56.141Z,0
2022-11-05T06:55:28.557Z,0
2022-11-05T06:56:00.006Z,0
2022-11-05T06:56:32.029Z,0
2022-11-05T06:57:04.491Z,0
2022-11-05T06:57:36.072Z,0
2022-11-05T06:58:08.032Z,0
2022-11-05T06:58:39.997Z,0
2022-11-05T06:59:12.032Z,0
2022-11-05T06:59:43.833Z,0
2022-11-05T07:00:17.209Z,0
2022-11-05T07:00:31.932Z,0
2022-11-05T07:01:15.899Z,0
2022-11-05T07:01:48.311Z,0
2022-11-05T07:02:19.867Z,0
2022-11-05T07:02:51.702Z,0
2022-11-05T07:03:08.126Z,0
2022-11-05T07:03:39.640Z,0
2022-11-05T07:04:23.646Z,0
2022-11-05T07:04:55.786Z,0
2022-11-05T07:05:28.223Z,0
2022-11-05T07:05:59.532Z,0
2022-11-05T07:06:36.696Z,0
2022-11-05T07:07:04.288Z,0
2022-11-05T07:07:35.439Z,0
2022-11-05T07:08:07.560Z,0
2022-11-05T07:08:39.578Z,0
2022-11-05T07:09:11.766Z,0
2022-11-05T07:09:43.809Z,0
2022-11-05T07:10:15.561Z,0
2022-11-05T07:10:47.431Z,0
2022-11-05T07:11:19.662Z,0
2022-11-05T07:11:51.364Z,0
2022-11-05T07:12:23.491Z,0
2022-11-05T07:12:55.399Z,0
2022-11-05T07:13:27.560Z,0
2022-11-05T07:13:59.521Z,0
2022-11-05T07:14:33.809Z,0
2022-11-05T07:14:47.462Z,0
2022-11-05T07:15:24.571Z,0
2022-11-05T07:16:04.260Z,0
2022-11-05T07:16:35.059Z,0
2022-11-05T07:17:07.299Z,0
2022-11-05T07:17:39.480Z,0
2022-11-05T07:18:11.216Z,0
2022-11-05T07:18:43.001Z,0
2022-11-05T07:19:15.060Z,0
2022-11-05T07:19:47.028Z,0
2022-11-05T07:20:19.393Z,0
2022-11-05T07:20:50.922Z,0
2022-11-05T07:21:22.884Z,0
2022-11-05T07:21:54.977Z,0
2022-11-05T07:22:27.061Z,0
2022-11-05T07:22:58.918Z,0
2022-11-05T07:23:30.864Z,0
2022-11-05T07:23:46.931Z,0
2022-11-05T07:24:30.815Z,0
2022-11-05T07:25:04.234Z,0
2022-11-05T07:25:34.810Z,0
2022-11-05T07:26:06.832Z,0
2022-11-05T07:26:38.910Z,0
2022-11-05T07:27:10.910Z,0